Time;durP1;ratioP1;P1;durP2;ratioP2;P2;SDS_P1;SDS_P2;PMS_P1;PMS_P2;Temp;Humidity;BMP_temperature;BMP_pressure;BME280_temperature;BME280_humidity;BME280_pressure;Samples;Min_cycle;Max_cycle;Signal;HPM_P1;HPM_P2
2023/10/02 00:01:52;;;;;;;4.63;2.60;;;17.50;99.90;;;;;;4863359;29;20044;-76
2023/10/02 00:04:19;;;;;;;3.60;2.28;;;17.50;99.90;;;;;;4847912;29;20096;-76
2023/10/02 00:06:50;;;;;;;5.07;2.70;;;17.40;99.90;;;;;;4863154;29;20049;-76
2023/10/02 00:09:20;;;;;;;4.00;2.55;;;17.40;99.90;;;;;;4863344;29;20092;-76
2023/10/02 00:11:46;;;;;;;4.43;2.65;;;17.40;99.90;;;;;;4863332;29;20052;-76
2023/10/02 00:14:20;;;;;;;3.72;2.53;;;17.40;99.90;;;;;;4847759;29;20060;-76
2023/10/02 00:16:59;;;;;;;4.78;2.70;;;17.30;99.90;;;;;;4863147;29;20045;-76
2023/10/02 00:19:27;;;;;;;3.55;2.05;;;17.30;99.90;;;;;;4839555;29;20104;-76
2023/10/02 00:21:57;;;;;;;5.05;2.80;;;17.30;99.90;;;;;;4847703;29;20056;-76
2023/10/02 00:24:27;;;;;;;3.90;2.63;;;17.30;99.90;;;;;;4861191;29;20117;-76
2023/10/02 00:26:57;;;;;;;4.47;2.53;;;17.30;99.90;;;;;;4856198;29;20056;-76
2023/10/02 00:29:26;;;;;;;4.90;2.88;;;17.30;99.90;;;;;;4852811;29;20497;-76
2023/10/02 00:31:53;;;;;;;4.05;2.53;;;17.20;99.90;;;;;;4862984;29;20156;-76
2023/10/02 00:34:31;;;;;;;5.00;2.78;;;17.30;99.90;;;;;;4847780;29;20464;-76
2023/10/02 00:37:05;;;;;;;4.95;2.85;;;17.30;99.90;;;;;;4862938;29;20057;-76
2023/10/02 00:39:35;;;;;;;5.05;2.85;;;17.30;99.90;;;;;;4859888;29;20589;-76
2023/10/02 00:44:54;;;;;;;4.75;2.97;;;17.20;99.90;;;;;;4862772;29;20108;-76
2023/10/02 00:47:48;;;;;;;4.38;2.75;;;17.20;99.90;;;;;;4862850;29;20053;-76
2023/10/02 00:50:18;;;;;;;5.15;3.25;;;17.20;99.90;;;;;;4847443;29;20044;-77
2023/10/02 00:53:00;;;;;;;5.63;3.20;;;17.20;99.90;;;;;;4847405;29;20048;-77
2023/10/02 00:55:31;;;;;;;5.50;3.20;;;17.20;99.90;;;;;;4847533;29;20064;-77
2023/10/02 00:57:58;;;;;;;5.35;3.22;;;17.10;99.90;;;;;;4862058;29;20057;-77
2023/10/02 01:00:35;;;;;;;5.78;3.35;;;17.10;99.90;;;;;;4862397;29;20048;-77
2023/10/02 01:03:05;;;;;;;5.55;3.10;;;17.00;99.90;;;;;;4848102;29;20080;-77
2023/10/02 01:05:42;;;;;;;5.53;3.40;;;17.00;99.90;;;;;;4841795;29;20037;-77
2023/10/02 01:08:23;;;;;;;5.35;3.10;;;16.90;99.90;;;;;;4854984;29;20053;-77
2023/10/02 01:10:59;;;;;;;4.35;3.15;;;16.90;99.90;;;;;;4848980;29;20120;-77
2023/10/02 01:13:32;;;;;;;6.67;3.70;;;16.80;99.90;;;;;;4862430;29;20497;-77
2023/10/02 01:16:00;;;;;;;6.03;3.58;;;16.80;99.90;;;;;;4862266;29;20116;-76
2023/10/02 01:18:29;;;;;;;5.57;3.58;;;16.70;99.90;;;;;;4862395;29;20500;-76
2023/10/02 01:21:00;;;;;;;5.82;3.70;;;16.70;99.90;;;;;;4861882;29;20041;-77
2023/10/02 01:23:33;;;;;;;5.45;3.28;;;16.70;99.90;;;;;;4861901;29;20053;-77
2023/10/02 01:26:02;;;;;;;6.82;3.92;;;16.70;99.90;;;;;;4846751;29;20053;-77
2023/10/02 01:28:51;;;;;;;7.07;3.67;;;16.60;99.90;;;;;;4854298;29;20124;-77
2023/10/02 01:31:32;;;;;;;6.53;3.40;;;16.70;99.90;;;;;;4843515;29;20052;-77
2023/10/02 01:34:02;;;;;;;6.43;4.03;;;16.70;99.90;;;;;;4857085;29;20105;-77
2023/10/02 01:36:35;;;;;;;5.22;3.45;;;16.70;99.90;;;;;;4861519;29;20052;-76
2023/10/02 01:39:10;;;;;;;5.38;3.38;;;16.60;99.90;;;;;;4859402;29;20123;-76
2023/10/02 01:41:40;;;;;;;6.45;3.58;;;16.60;99.90;;;;;;4861686;29;20095;-76
2023/10/02 01:44:11;;;;;;;5.65;3.33;;;16.60;99.90;;;;;;4831394;29;20419;-76
2023/10/02 01:46:49;;;;;;;5.97;3.65;;;16.60;99.90;;;;;;4846802;29;20131;-76
2023/10/02 01:49:24;;;;;;;6.97;4.00;;;16.60;99.90;;;;;;4847504;29;20163;-76
2023/10/02 01:51:58;;;;;;;5.25;3.58;;;16.60;99.90;;;;;;4861727;29;20147;-76
2023/10/02 01:54:31;;;;;;;6.03;3.65;;;16.60;99.90;;;;;;4861401;29;20404;-76
2023/10/02 01:56:57;;;;;;;5.50;3.80;;;16.60;99.90;;;;;;4861438;29;20409;-76
2023/10/02 01:59:24;;;;;;;;;;;16.60;99.90;;;;;;4861691;29;20044;-76
2023/10/02 02:01:56;;;;;;;5.97;3.53;;;16.60;99.90;;;;;;4835281;29;20374;-76
2023/10/02 02:04:32;;;;;;;5.32;3.50;;;16.60;99.90;;;;;;4834473;29;20060;-76
2023/10/02 02:07:00;;;;;;;7.68;4.03;;;16.60;99.90;;;;;;4841926;29;20090;-76
2023/10/02 02:09:31;;;;;;;6.10;3.90;;;16.60;99.90;;;;;;4841464;29;20056;-76
2023/10/02 02:12:08;;;;;;;7.00;3.83;;;16.50;99.90;;;;;;4842631;29;20056;-76
2023/10/02 02:14:49;;;;;;;7.03;4.30;;;16.50;99.90;;;;;;4842834;29;20053;-76
2023/10/02 02:17:25;;;;;;;7.75;3.92;;;16.50;99.90;;;;;;4842568;29;20052;-76
2023/10/02 02:19:52;;;;;;;5.80;3.67;;;16.50;99.90;;;;;;4842653;29;20068;-76
2023/10/02 02:22:23;;;;;;;5.97;3.85;;;16.50;99.90;;;;;;4842562;29;20065;-76
2023/10/02 02:24:51;;;;;;;6.75;4.05;;;16.40;99.90;;;;;;4842318;29;20145;-76
2023/10/02 02:27:19;;;;;;;6.93;3.97;;;16.40;99.90;;;;;;4827946;29;20379;-76
2023/10/02 02:29:56;;;;;;;6.78;3.80;;;16.40;99.90;;;;;;4827558;29;20045;-76
2023/10/02 02:35:09;;;;;;;7.70;4.00;;;16.20;99.90;;;;;;4842351;29;20094;-76
2023/10/02 02:37:35;;;;;;;7.50;3.95;;;16.20;99.90;;;;;;4857659;29;20053;-76
2023/10/02 02:40:22;;;;;;;;;;;16.20;99.90;;;;;;4842858;29;20045;-76
2023/10/02 02:42:52;;;;;;;6.32;3.75;;;16.10;99.90;;;;;;4842810;29;19963;-76
2023/10/02 02:45:29;;;;;;;6.85;3.65;;;16.20;99.90;;;;;;4844708;29;20034;-76
2023/10/02 02:48:07;;;;;;;6.80;4.05;;;16.10;99.90;;;;;;4857978;29;20561;-76
2023/10/02 02:50:40;;;;;;;6.22;3.92;;;16.10;99.90;;;;;;4842373;29;20049;-76
2023/10/02 02:53:23;;;;;;;6.45;3.97;;;16.10;99.90;;;;;;4842419;29;20049;-76
2023/10/02 02:58:56;;;;;;;7.07;4.18;;;16.00;99.90;;;;;;4830064;29;20048;-76
2023/10/02 03:01:22;;;;;;;;;;;16.10;99.90;;;;;;4857854;29;20045;-76
2023/10/02 03:03:55;;;;;;;5.88;3.63;;;16.10;99.90;;;;;;4826859;29;20379;-76
2023/10/02 03:06:22;;;;;;;6.18;3.55;;;16.00;99.90;;;;;;4842464;29;20053;-76
2023/10/02 03:08:52;;;;;;;6.60;3.90;;;16.10;99.90;;;;;;4857804;29;20053;-77
2023/10/02 03:11:19;;;;;;;5.95;3.45;;;16.00;99.90;;;;;;4857795;29;20051;-77
2023/10/02 03:13:49;;;;;;;5.53;3.47;;;16.00;99.90;;;;;;4857025;29;20105;-77
2023/10/02 03:16:18;;;;;;;7.57;4.25;;;16.10;99.90;;;;;;4827003;29;20064;-77
2023/10/02 03:18:45;;;;;;;7.47;3.60;;;16.00;99.90;;;;;;4857488;29;20041;-77
2023/10/02 03:21:21;;;;;;;5.65;3.53;;;16.00;99.90;;;;;;4862484;29;20045;-77
2023/10/02 03:23:48;;;;;;;5.18;3.35;;;16.00;99.90;;;;;;4848131;29;20061;-77
2023/10/02 03:26:52;;;;;;;6.80;3.80;;;16.00;99.90;;;;;;4848412;29;20045;-77
2023/10/02 03:29:16;;;;;;;6.60;4.22;;;16.00;99.90;;;;;;4845338;29;20162;-77
2023/10/02 03:31:43;;;;;;;5.45;3.42;;;15.90;99.90;;;;;;4863331;29;20057;-77
2023/10/02 03:34:28;;;;;;;5.25;3.40;;;15.90;99.90;;;;;;4847446;29;20409;-77
2023/10/02 03:39:52;;;;;;;6.38;3.88;;;15.90;99.90;;;;;;4847310;29;20042;-77
2023/10/02 03:42:31;;;;;;;5.72;3.58;;;15.90;99.90;;;;;;4857820;29;20041;-76
2023/10/02 03:44:58;;;;;;;5.40;3.58;;;15.80;99.90;;;;;;4861952;29;20069;-75
2023/10/02 03:47:30;;;;;;;7.30;4.13;;;15.80;99.90;;;;;;4846815;29;20053;-75
2023/10/02 03:50:12;;;;;;;5.75;3.50;;;15.80;99.90;;;;;;4846699;29;20494;-76
2023/10/02 03:52:41;;;;;;;5.18;3.20;;;15.90;99.90;;;;;;4834053;29;20088;-75
2023/10/02 03:55:17;;;;;;;6.03;3.65;;;15.80;99.90;;;;;;4846813;29;20758;-76
2023/10/02 03:58:02;;;;;;;6.20;3.53;;;15.80;99.90;;;;;;4843956;29;20089;-75
2023/10/02 04:00:42;;;;;;;6.57;3.92;;;15.80;99.90;;;;;;4840988;29;20045;-76
2023/10/02 04:03:09;;;;;;;5.35;3.53;;;15.80;99.90;;;;;;4860195;29;20045;-75
2023/10/02 04:05:44;;;;;;;6.13;3.75;;;15.80;99.90;;;;;;4845982;29;20077;-76
2023/10/02 04:08:21;;;;;;;5.93;3.50;;;15.80;99.90;;;;;;4859238;29;20046;-76
2023/10/02 04:10:55;;;;;;;5.80;3.72;;;15.80;99.90;;;;;;4848182;29;20346;-75
2023/10/02 04:13:25;;;;;;;8.00;4.15;;;15.80;99.90;;;;;;4848024;29;20037;-75
2023/10/02 04:16:28;;;;;;;6.70;4.20;;;15.80;99.90;;;;;;4848028;29;20037;-76
2023/10/02 04:18:49;;;;;;;5.55;3.33;;;15.80;99.90;;;;;;4838031;29;20058;-76
2023/10/02 04:21:22;;;;;;;6.45;3.90;;;15.80;99.90;;;;;;4846913;29;20401;-76
2023/10/02 04:23:53;;;;;;;6.30;3.80;;;15.80;99.90;;;;;;4843921;29;20516;-76
2023/10/02 04:26:20;;;;;;;5.43;3.38;;;15.80;99.90;;;;;;4823595;29;20687;-76
2023/10/02 04:28:54;;;;;;;6.03;3.60;;;15.80;99.90;;;;;;4842064;29;20041;-76
2023/10/02 04:31:27;;;;;;;6.63;3.90;;;15.80;99.90;;;;;;4858314;29;20126;-76
2023/10/02 04:36:40;;;;;;;6.50;4.10;;;15.90;99.90;;;;;;4847859;29;20774;-76
2023/10/02 04:39:12;;;;;;;7.07;4.18;;;15.90;99.90;;;;;;4844164;29;20141;-76
2023/10/02 04:42:09;;;;;;;5.13;3.78;;;15.90;99.90;;;;;;4823254;29;20155;-76
2023/10/02 04:44:23;;;;;;;6.00;3.90;;;15.90;99.90;;;;;;4857389;29;20556;-77
2023/10/02 04:46:52;;;;;;;6.40;3.60;;;15.90;99.90;;;;;;4850204;29;20136;-75
2023/10/02 04:49:17;;;;;;;6.07;4.05;;;15.90;99.90;;;;;;4843873;29;20082;-75
2023/10/02 04:51:46;;;;;;;5.45;3.92;;;15.90;99.90;;;;;;4857975;29;20407;-75
2023/10/02 04:54:15;;;;;;;6.30;3.33;;;15.90;99.90;;;;;;4843208;29;20505;-76
2023/10/02 04:56:46;;;;;;;6.30;3.97;;;15.90;99.90;;;;;;4844083;29;20048;-76
2023/10/02 04:59:12;;;;;;;7.13;4.15;;;15.90;99.90;;;;;;4844184;29;20045;-76
2023/10/02 05:02:08;;;;;;;6.57;3.65;;;15.90;99.90;;;;;;4847473;29;20140;-76
2023/10/02 05:04:31;;;;;;;6.93;4.00;;;15.80;99.90;;;;;;4843271;29;20067;-76
2023/10/02 05:06:57;;;;;;;5.88;3.67;;;15.90;99.90;;;;;;4857021;29;20153;-76
2023/10/02 05:09:25;;;;;;;;;;;15.90;99.90;;;;;;4858763;29;20048;-76
2023/10/02 05:14:26;;;;;;;5.85;3.85;;;15.80;99.90;;;;;;4858363;29;20132;-76
2023/10/02 05:16:52;;;;;;;6.43;4.00;;;15.80;99.90;;;;;;4842605;29;20102;-76
2023/10/02 05:19:46;;;;;;;6.97;3.97;;;15.80;99.90;;;;;;4842719;29;20054;-77
2023/10/02 05:22:04;;;;;;;6.13;3.90;;;15.70;99.90;;;;;;4842323;29;20514;-75
2023/10/02 05:24:32;;;;;;;5.90;3.75;;;15.70;99.90;;;;;;4843366;29;20174;-75
2023/10/02 05:26:59;;;;;;;6.30;3.85;;;15.70;99.90;;;;;;4827916;29;20049;-75
2023/10/02 05:29:40;;;;;;;5.93;3.75;;;15.70;99.90;;;;;;4857130;29;20041;-74
2023/10/02 05:32:23;;;;;;;6.75;3.92;;;15.60;99.90;;;;;;4843459;29;20059;-74
2023/10/02 05:37:42;;;;;;;6.95;4.25;;;15.60;99.90;;;;;;4830031;29;20049;-74
2023/10/02 05:45:47;;;;;;;6.53;3.88;;;15.60;99.90;;;;;;4842679;29;20077;-74
2023/10/02 05:48:15;;;;;;;7.25;4.10;;;15.60;99.90;;;;;;4837907;29;20045;-74
2023/10/02 05:50:47;;;;;;;7.18;4.32;;;15.60;99.90;;;;;;4858340;29;20053;-74
2023/10/02 05:53:15;;;;;;;6.57;4.30;;;15.50;99.90;;;;;;4840907;29;20045;-75
2023/10/02 05:58:32;;;;;;;7.00;4.10;;;15.60;99.90;;;;;;4842020;29;20077;-75
2023/10/02 06:01:18;;;;;;;6.03;3.95;;;15.60;99.90;;;;;;4857777;29;20472;-74
2023/10/02 06:03:56;;;;;;;6.85;4.10;;;15.60;99.90;;;;;;4857706;29;20437;-74
2023/10/02 06:06:23;;;;;;;6.55;4.05;;;15.70;99.90;;;;;;4839318;29;20049;-75
2023/10/02 06:09:12;;;;;;;5.80;4.00;;;15.70;99.90;;;;;;4819092;29;20049;-74
2023/10/02 06:14:24;;;;;;;6.85;3.83;;;15.70;99.90;;;;;;4842295;29;20129;-75
2023/10/02 06:16:52;;;;;;;5.47;3.47;;;15.70;99.90;;;;;;4857566;29;20077;-74
2023/10/02 06:19:18;;;;;;;6.45;3.88;;;15.80;99.90;;;;;;4841946;29;20045;-75
2023/10/02 06:21:46;;;;;;;6.45;4.22;;;15.70;99.90;;;;;;4841947;29;20140;-75
2023/10/02 06:24:18;;;;;;;7.25;4.28;;;15.80;99.90;;;;;;4859096;29;20092;-75
2023/10/02 06:26:57;;;;;;;6.47;3.97;;;15.80;99.90;;;;;;4842503;29;20049;-74
2023/10/02 06:29:35;;;;;;;7.10;4.18;;;15.80;99.90;;;;;;4857507;29;20057;-75
2023/10/02 06:32:24;;;;;;;6.00;3.47;;;15.80;99.90;;;;;;4842489;29;20049;-75
2023/10/02 06:34:50;;;;;;;7.55;3.83;;;15.90;99.90;;;;;;4841419;29;20074;-75
2023/10/02 06:37:24;;;;;;;6.65;3.58;;;15.90;99.90;;;;;;4857198;29;20085;-75
2023/10/02 06:40:04;;;;;;;6.53;3.80;;;15.90;99.90;;;;;;4857601;29;20081;-75
2023/10/02 06:42:31;;;;;;;5.05;3.17;;;15.90;99.90;;;;;;4841912;29;20083;-75
2023/10/02 06:45:01;;;;;;;6.55;3.80;;;16.00;99.90;;;;;;4841832;29;20058;-76
2023/10/02 06:47:29;;;;;;;5.82;3.80;;;16.00;99.90;;;;;;4857543;29;20053;-76
2023/10/02 06:50:02;;;;;;;6.32;3.67;;;16.10;99.90;;;;;;4841502;29;20462;-76
2023/10/02 06:52:32;;;;;;;6.43;4.07;;;16.10;99.90;;;;;;4841779;29;20117;-75
2023/10/02 06:55:00;;;;;;;6.93;4.32;;;16.10;99.90;;;;;;4841310;29;20041;-75
2023/10/02 06:57:26;;;;;;;6.25;3.80;;;16.10;99.90;;;;;;4841903;29;20049;-74
2023/10/02 06:59:52;;;;;;;7.05;3.83;;;16.20;99.90;;;;;;4857159;29;20048;-74
2023/10/02 07:02:27;;;;;;;7.55;4.65;;;16.20;99.90;;;;;;4857330;29;20118;-75
2023/10/02 07:04:55;;;;;;;6.47;3.90;;;16.20;99.90;;;;;;4834400;29;20110;-75
2023/10/02 07:07:28;;;;;;;5.13;3.45;;;16.30;99.90;;;;;;4857480;29;20107;-75
2023/10/02 07:09:55;;;;;;;6.28;4.00;;;16.40;99.90;;;;;;4858528;29;20047;-74
2023/10/02 07:12:22;;;;;;;5.63;3.53;;;16.50;99.90;;;;;;4857435;29;20413;-75
2023/10/02 07:14:48;;;;;;;6.53;4.00;;;16.60;99.90;;;;;;4841686;29;20459;-75
2023/10/02 07:17:17;;;;;;;7.30;4.45;;;16.60;99.90;;;;;;4841463;29;20050;-75
2023/10/02 07:19:50;;;;;;;10.35;5.93;;;16.70;99.90;;;;;;4857298;29;20759;-75
2023/10/02 07:22:24;;;;;;;10.50;6.22;;;16.80;99.90;;;;;;4857129;29;20048;-75
2023/10/02 07:24:55;;;;;;;8.32;5.40;;;16.80;99.90;;;;;;4841754;29;20081;-75
2023/10/02 07:27:26;;;;;;;7.10;4.85;;;17.00;99.90;;;;;;4823432;29;20050;-75
2023/10/02 07:29:58;;;;;;;7.97;4.82;;;17.10;99.90;;;;;;4856713;29;20061;-75
2023/10/02 07:32:26;;;;;;;9.02;5.35;;;17.20;99.90;;;;;;4856968;29;20049;-74
2023/10/02 07:34:54;;;;;;;9.25;5.10;;;17.30;99.90;;;;;;4856905;29;20117;-75
2023/10/02 07:37:30;;;;;;;9.10;5.10;;;17.40;99.90;;;;;;4841591;29;20049;-75
2023/10/02 07:39:56;;;;;;;8.32;5.13;;;17.50;99.90;;;;;;4857014;29;20105;-75
2023/10/02 07:42:28;;;;;;;;;;;17.60;99.90;;;;;;4857505;29;20049;-75
2023/10/02 07:44:56;;;;;;;7.45;4.50;;;17.70;99.90;;;;;;4841636;29;19963;-75
2023/10/02 07:47:22;;;;;;;7.45;4.78;;;17.80;99.90;;;;;;4841629;29;20462;-75
2023/10/02 07:49:51;;;;;;;;;;;18.00;99.90;;;;;;4858460;29;20052;-74
2023/10/02 07:52:35;;;;;;;9.68;6.05;;;18.10;99.90;;;;;;4841421;29;19979;-75
2023/10/02 07:55:01;;;;;;;11.77;7.00;;;18.10;99.90;;;;;;4841360;29;20049;-75
2023/10/02 07:57:35;;;;;;;;;;;18.20;99.90;;;;;;4841870;29;20462;-75
2023/10/02 08:00:31;;;;;;;12.68;7.00;;;18.30;99.90;;;;;;4841396;29;20381;-75
2023/10/02 08:02:52;;;;;;;13.05;7.90;;;18.30;99.90;;;;;;4856885;29;20064;-75
2023/10/02 08:05:20;;;;;;;;;;;18.40;99.90;;;;;;4856888;29;20049;-75
2023/10/02 08:07:46;;;;;;;11.65;7.07;;;18.40;99.90;;;;;;4843298;29;19924;-75
2023/10/02 08:10:14;;;;;;;10.02;6.47;;;18.40;99.90;;;;;;4829133;29;20494;-75
2023/10/02 08:12:54;;;;;;;12.43;7.03;;;18.40;99.90;;;;;;4860505;29;20041;-75
2023/10/02 08:15:27;;;;;;;12.13;6.95;;;18.40;99.90;;;;;;4844745;29;20049;-75
2023/10/02 08:20:24;;;;;;;12.23;7.40;;;18.50;99.90;;;;;;4859936;29;20060;-75
2023/10/02 08:22:52;;;;;;;9.38;6.18;;;18.50;99.90;;;;;;4844415;29;20062;-75
2023/10/02 08:25:23;;;;;;;8.77;5.57;;;18.50;99.90;;;;;;4844603;29;20105;-75
2023/10/02 08:27:57;;;;;;;11.35;6.38;;;18.60;99.90;;;;;;4844541;29;20092;-75
2023/10/02 08:30:32;;;;;;;12.63;7.50;;;18.60;99.90;;;;;;4844243;29;20060;-75
2023/10/02 08:33:06;;;;;;;14.25;8.38;;;18.60;99.90;;;;;;4844266;29;20053;-75
2023/10/02 08:35:46;;;;;;;12.98;8.15;;;18.70;99.90;;;;;;4859567;29;20536;-75
2023/10/02 08:38:25;;;;;;;11.40;6.90;;;18.70;99.90;;;;;;4844687;29;20129;-75
2023/10/02 08:40:57;;;;;;;14.25;8.10;;;18.90;99.90;;;;;;4844027;29;20049;-75
2023/10/02 08:43:32;;;;;;;16.00;9.13;;;18.90;99.90;;;;;;4860969;29;20041;-75
2023/10/02 08:45:59;;;;;;;15.18;9.15;;;19.10;99.90;;;;;;4844209;29;20045;-75
2023/10/02 08:48:25;;;;;;;13.20;7.85;;;19.20;99.90;;;;;;4825852;29;20053;-75
2023/10/02 08:50:57;;;;;;;12.50;7.53;;;19.20;99.90;;;;;;4851826;29;20041;-75
2023/10/02 08:53:23;;;;;;;11.88;7.35;;;19.30;99.90;;;;;;4844084;29;20092;-75
2023/10/02 08:56:05;;;;;;;10.85;6.85;;;19.30;99.90;;;;;;4843993;29;20076;-75
2023/10/02 08:58:31;;;;;;;10.95;6.82;;;19.20;99.90;;;;;;4843847;29;20045;-75
2023/10/02 09:03:41;;;;;;;12.07;7.03;;;19.10;99.90;;;;;;4844033;29;20520;-75
2023/10/02 09:06:31;;;;;;;12.00;7.05;;;19.10;99.90;;;;;;4859380;29;20129;-74
2023/10/02 09:09:21;;;;;;;11.73;6.90;;;19.10;99.90;;;;;;4859309;29;20417;-75
2023/10/02 09:11:57;;;;;;;13.05;8.20;;;19.20;99.90;;;;;;4843918;29;20057;-75
2023/10/02 09:19:58;;;;;;;19.45;11.52;;;19.30;99.90;;;;;;4843427;29;20065;-75
2023/10/02 09:22:25;;;;;;;17.77;10.82;;;19.50;99.90;;;;;;4857084;29;20506;-75
2023/10/02 09:27:55;;;;;;;17.63;9.70;;;19.70;99.90;;;;;;4846304;29;20045;-75
2023/10/02 09:33:22;;;;;;;14.13;8.40;;;19.70;99.90;;;;;;4852009;29;20481;-77
2023/10/02 09:35:51;;;;;;;13.82;8.07;;;19.80;99.90;;;;;;4860648;29;20049;-76
2023/10/02 09:38:17;;;;;;;17.38;9.38;;;19.80;99.90;;;;;;4843736;29;20124;-76
2023/10/02 09:40:59;;;;;;;20.10;10.52;;;19.80;99.90;;;;;;4859056;29;20141;-76
2023/10/02 09:43:28;;;;;;;18.25;9.85;;;19.80;99.90;;;;;;4828141;29;20053;-76
2023/10/02 09:45:55;;;;;;;15.43;9.30;;;19.70;99.90;;;;;;4846422;29;20135;-76
2023/10/02 09:51:26;;;;;;;16.88;10.05;;;19.60;99.90;;;;;;4861667;29;20049;-76
2023/10/02 09:54:19;;;;;;;17.63;9.68;;;19.60;99.90;;;;;;4861860;29;20121;-77
2023/10/02 09:57:11;;;;;;;19.75;11.35;;;19.70;99.90;;;;;;4828873;29;20116;-76
2023/10/02 09:59:48;;;;;;;16.92;9.98;;;19.70;99.90;;;;;;4861538;29;20411;-77
2023/10/02 10:02:49;;;;;;;15.07;9.45;;;19.90;99.90;;;;;;4832087;29;20045;-76
2023/10/02 10:13:27;;;;;;;15.68;9.38;;;20.40;99.90;;;;;;4861302;29;20063;-76
2023/10/02 10:16:21;;;;;;;14.63;9.02;;;20.30;99.90;;;;;;4860775;29;20523;-76
2023/10/02 10:21:57;;;;;;;10.35;6.78;;;20.50;99.90;;;;;;4859999;29;20057;-75
2023/10/02 10:25:22;;;;;;;13.07;8.35;;;20.70;99.90;;;;;;4861072;29;20053;-76
2023/10/02 10:28:00;;;;;;;12.25;6.95;;;20.80;99.90;;;;;;4830522;29;20064;-76
2023/10/02 10:30:33;;;;;;;11.07;6.95;;;20.80;99.90;;;;;;4856883;29;20056;-77
2023/10/02 10:35:48;;;;;;;11.38;6.10;;;21.00;99.90;;;;;;4848139;29;20049;-76
2023/10/02 10:38:28;;;;;;;9.13;5.55;;;21.20;99.90;;;;;;4860616;29;20523;-76
2023/10/02 10:41:01;;;;;;;11.52;6.75;;;21.20;99.90;;;;;;4832686;29;20474;-76
2023/10/02 10:46:21;;;;;;;18.65;11.00;;;21.20;99.90;;;;;;4842325;29;20061;-77
2023/10/02 10:49:15;;;;;;;15.90;10.50;;;21.40;99.90;;;;;;4842576;29;20041;-76
2023/10/02 10:51:42;;;;;;;18.70;11.13;;;21.40;99.90;;;;;;4839167;29;20049;-77
2023/10/02 10:54:13;;;;;;;17.00;9.60;;;21.20;99.90;;;;;;4849082;29;20067;-76
2023/10/02 10:59:45;;;;;;;14.43;8.40;;;21.10;99.90;;;;;;4857155;29;20046;-76
2023/10/02 11:02:17;;;;;;;16.50;9.93;;;21.00;99.90;;;;;;4841996;29;20128;-76
2023/10/02 11:04:50;;;;;;;15.73;9.30;;;20.90;99.90;;;;;;4841771;29;20048;-76
2023/10/02 11:07:19;;;;;;;16.33;9.07;;;20.90;99.90;;;;;;4842185;29;20056;-76
2023/10/02 11:13:06;;;;;;;15.13;8.85;;;20.90;99.90;;;;;;4794987;29;20067;-76
2023/10/02 11:15:46;;;;;;;15.65;8.13;;;20.90;99.90;;;;;;4800508;29;20125;-76
2023/10/02 11:18:26;;;;;;;11.43;7.25;;;21.00;99.90;;;;;;4809150;29;20137;-75
2023/10/02 11:20:57;;;;;;;12.63;8.05;;;21.00;99.90;;;;;;4829810;29;20414;-76
2023/10/02 11:23:39;;;;;;;14.88;7.25;;;21.00;99.90;;;;;;4857041;29;20470;-75
2023/10/02 11:26:13;;;;;;;12.35;7.35;;;21.10;99.90;;;;;;4843050;29;20062;-75
2023/10/02 11:28:49;;;;;;;12.00;6.68;;;21.10;99.90;;;;;;4837217;29;20177;-75
2023/10/02 11:31:36;;;;;;;12.00;8.02;;;21.20;99.90;;;;;;4857042;29;20053;-75
2023/10/02 11:34:01;;;;;;;11.63;7.43;;;21.10;99.90;;;;;;4841780;29;20046;-75
2023/10/02 11:36:29;;;;;;;11.02;7.35;;;21.20;99.90;;;;;;4841208;29;20494;-75
2023/10/02 11:38:56;;;;;;;11.90;7.10;;;21.30;99.90;;;;;;4841683;29;20088;-75
2023/10/02 11:41:21;;;;;;;11.40;6.90;;;21.50;99.90;;;;;;4843037;29;20100;-75
2023/10/02 11:43:48;;;;;;;12.10;7.32;;;21.50;99.90;;;;;;4815091;29;20470;-75
2023/10/02 11:46:14;;;;;;;12.27;7.20;;;21.60;99.90;;;;;;4831642;29;20053;-76
2023/10/02 11:48:40;;;;;;;12.10;8.20;;;21.60;99.90;;;;;;4841141;29;20037;-76
2023/10/02 11:51:07;;;;;;;13.95;8.30;;;21.60;99.90;;;;;;4860493;29;20117;-76
2023/10/02 11:53:33;;;;;;;11.82;7.60;;;21.70;99.90;;;;;;4845233;29;20049;-75
2023/10/02 11:55:59;;;;;;;10.23;6.65;;;21.80;99.90;;;;;;4844970;29;20052;-75
2023/10/02 11:58:25;;;;;;;9.05;5.70;;;21.80;99.90;;;;;;4826807;29;20136;-76
2023/10/02 12:00:51;;;;;;;8.77;5.55;;;21.90;99.90;;;;;;4851491;29;20124;-76
2023/10/02 12:03:18;;;;;;;8.68;5.50;;;21.80;99.90;;;;;;4860329;29;20470;-76
2023/10/02 12:05:43;;;;;;;8.15;5.72;;;21.80;99.90;;;;;;4845072;29;20048;-75
2023/10/02 12:08:09;;;;;;;8.52;5.25;;;21.80;99.90;;;;;;4845086;29;20053;-75
2023/10/02 12:10:39;;;;;;;7.70;4.93;;;21.80;99.90;;;;;;4860326;29;20496;-75
2023/10/02 12:13:06;;;;;;;7.07;4.63;;;21.70;99.90;;;;;;4860269;29;20048;-75
2023/10/02 12:15:31;;;;;;;6.93;4.88;;;21.70;99.90;;;;;;4859994;29;20057;-76
2023/10/02 12:17:57;;;;;;;8.15;5.07;;;21.60;99.90;;;;;;4841405;29;20077;-75
2023/10/02 12:20:23;;;;;;;10.25;6.78;;;21.50;99.90;;;;;;4857224;29;20534;-75
2023/10/02 12:22:48;;;;;;;8.32;5.68;;;21.50;99.90;;;;;;4859914;29;20057;-75
2023/10/02 12:25:15;;;;;;;10.23;6.25;;;21.50;99.90;;;;;;4859891;29;20048;-75
2023/10/02 12:27:41;;;;;;;9.40;6.28;;;21.40;99.90;;;;;;4844561;29;20552;-74
2023/10/02 12:30:11;;;;;;;8.95;6.43;;;21.40;99.90;;;;;;4844496;29;20080;-76
2023/10/02 12:32:38;;;;;;;12.73;7.45;;;21.30;99.90;;;;;;4860045;29;20057;-76
2023/10/02 12:35:05;;;;;;;13.75;9.38;;;21.40;99.90;;;;;;4860143;29;20160;-75
2023/10/02 12:37:32;;;;;;;14.77;9.85;;;21.30;99.90;;;;;;4859739;29;20056;-75
2023/10/02 12:39:58;;;;;;;13.88;8.70;;;21.40;99.90;;;;;;4844375;29;20057;-75
2023/10/02 12:42:25;;;;;;;10.18;6.88;;;21.40;99.90;;;;;;4841365;29;20061;-75
2023/10/02 12:44:53;;;;;;;10.55;6.88;;;21.30;99.90;;;;;;4843080;29;20046;-76
2023/10/02 12:47:19;;;;;;;11.68;7.55;;;21.40;99.90;;;;;;4844429;29;20129;-76
2023/10/02 12:49:45;;;;;;;9.40;6.28;;;21.30;99.90;;;;;;4844168;29;20061;-77
2023/10/02 12:52:11;;;;;;;9.90;6.65;;;21.40;99.90;;;;;;4843587;29;20508;-76
2023/10/02 12:54:37;;;;;;;9.77;6.22;;;21.30;99.90;;;;;;4843621;29;20076;-76
2023/10/02 12:57:05;;;;;;;9.80;6.88;;;21.40;99.90;;;;;;4825644;29;20050;-76
2023/10/02 12:59:30;;;;;;;10.70;7.00;;;21.50;99.90;;;;;;4849992;29;20085;-76
2023/10/02 13:01:57;;;;;;;10.95;7.20;;;21.40;99.90;;;;;;4843441;29;20084;-76
2023/10/02 13:04:23;;;;;;;10.02;6.75;;;21.50;99.90;;;;;;4843879;29;20128;-76
2023/10/02 13:06:49;;;;;;;8.98;6.28;;;21.50;99.90;;;;;;4859403;29;20072;-76
2023/10/02 13:09:15;;;;;;;11.95;7.78;;;21.60;99.90;;;;;;4859127;29;20413;-75
2023/10/02 13:11:44;;;;;;;10.20;6.47;;;21.70;99.90;;;;;;4843683;29;20055;-76
2023/10/02 13:14:13;;;;;;;11.07;7.18;;;21.80;99.90;;;;;;4825442;29;20494;-76
2023/10/02 13:16:43;;;;;;;13.75;8.25;;;21.80;99.90;;;;;;4838591;29;20073;-77
2023/10/02 13:19:11;;;;;;;10.93;7.20;;;21.80;99.90;;;;;;4843594;29;20045;-76
2023/10/02 13:21:37;;;;;;;9.70;6.47;;;21.80;99.90;;;;;;4843670;29;20092;-76
2023/10/02 13:24:05;;;;;;;12.70;7.53;;;21.90;99.90;;;;;;4843591;29;20053;-76
2023/10/02 13:26:32;;;;;;;15.57;9.65;;;22.00;99.90;;;;;;4859053;29;20081;-76
2023/10/02 13:28:57;;;;;;;14.60;9.15;;;21.80;99.90;;;;;;4843674;29;20045;-77
2023/10/02 13:31:24;;;;;;;9.95;6.78;;;21.90;99.90;;;;;;4840544;29;20068;-77
2023/10/02 13:33:54;;;;;;;10.82;7.20;;;22.00;99.90;;;;;;4839376;29;20081;-77
2023/10/02 13:36:22;;;;;;;10.18;6.93;;;22.00;99.90;;;;;;4843380;29;20050;-77
2023/10/02 13:38:54;;;;;;;12.63;8.30;;;22.00;99.90;;;;;;4843414;29;20057;-76
2023/10/02 13:41:20;;;;;;;8.85;6.45;;;21.80;99.90;;;;;;4858766;29;20053;-76
2023/10/02 13:43:48;;;;;;;10.15;5.80;;;21.90;99.90;;;;;;4843299;29;20493;-76
2023/10/02 13:46:16;;;;;;;8.15;5.60;;;21.80;99.90;;;;;;4858781;29;20124;-76
2023/10/02 13:48:42;;;;;;;8.52;5.70;;;21.80;99.90;;;;;;4843288;29;20549;-76
2023/10/02 13:51:09;;;;;;;7.53;5.10;;;21.70;99.90;;;;;;4843023;29;20049;-76
2023/10/02 13:53:36;;;;;;;5.85;4.15;;;21.70;99.90;;;;;;4843054;29;20049;-76
2023/10/02 13:56:10;;;;;;;7.57;5.05;;;21.70;99.90;;;;;;4842904;29;20556;-76
2023/10/02 13:58:40;;;;;;;8.32;5.13;;;21.70;99.90;;;;;;4858540;29;20194;-76
2023/10/02 14:01:07;;;;;;;7.63;4.70;;;21.70;99.90;;;;;;4858009;29;20056;-76
2023/10/02 14:03:34;;;;;;;10.45;6.82;;;21.70;99.90;;;;;;4842386;29;20060;-76
2023/10/02 14:06:04;;;;;;;14.80;8.90;;;21.60;99.90;;;;;;4841161;29;20037;-76
2023/10/02 14:08:30;;;;;;;9.90;7.35;;;21.60;99.90;;;;;;4840986;29;20049;-76
2023/10/02 14:10:56;;;;;;;10.60;6.68;;;21.60;99.90;;;;;;4854674;29;20438;-76
2023/10/02 14:13:22;;;;;;;11.80;6.82;;;21.50;99.90;;;;;;4841158;29;20057;-76
2023/10/02 14:15:47;;;;;;;11.27;7.63;;;21.50;99.90;;;;;;4842440;29;20057;-73
2023/10/02 14:18:14;;;;;;;9.57;6.50;;;21.50;99.90;;;;;;4839792;29;20053;-75
2023/10/02 14:20:39;;;;;;;11.25;7.70;;;21.50;99.90;;;;;;4857160;29;20124;-77
2023/10/02 14:23:05;;;;;;;8.27;5.85;;;21.50;99.90;;;;;;4826493;29;20136;-77